createdAt,value
2023-03-06T00:01:33.008Z,76.65
2023-03-06T00:04:05.465Z,76.32
2023-03-06T00:06:37.759Z,76.55
2023-03-06T00:09:11.019Z,76.60
2023-03-06T00:11:43.418Z,76.73
2023-03-06T00:14:16.220Z,77.54
2023-03-06T00:16:48.375Z,77.86
2023-03-06T00:19:20.666Z,77.65
2023-03-06T00:21:53.016Z,77.48
2023-03-06T00:24:25.497Z,77.23
2023-03-06T00:26:57.954Z,77.12
2023-03-06T00:29:30.298Z,76.89
2023-03-06T00:32:03.168Z,77.61
2023-03-06T00:34:35.388Z,77.62
2023-03-06T00:37:07.702Z,77.27
2023-03-06T00:39:39.935Z,77.69
2023-03-06T00:42:12.185Z,77.16
2023-03-06T00:44:44.586Z,77.40
2023-03-06T00:47:17.468Z,77.83
2023-03-06T00:49:49.830Z,77.93
2023-03-06T00:52:22.104Z,77.75
2023-03-06T00:54:54.618Z,77.70
2023-03-06T00:57:26.872Z,77.43
2023-03-06T00:59:59.317Z,77.20
2023-03-06T01:02:31.589Z,77.12
2023-03-06T01:05:03.686Z,77.16
2023-03-06T01:07:37.252Z,77.89
2023-03-06T01:10:11.584Z,77.88
2023-03-06T01:12:43.902Z,77.81
2023-03-06T01:15:16.702Z,78.11
2023-03-06T01:17:48.885Z,77.85
2023-03-06T01:20:21.370Z,77.58
2023-03-06T01:22:55.805Z,77.29
2023-03-06T01:25:28.544Z,77.13
2023-03-06T01:28:00.872Z,76.85
2023-03-06T01:30:34.066Z,76.77
2023-03-06T01:33:06.921Z,76.78
2023-03-06T01:35:41.060Z,76.86
2023-03-06T01:38:13.430Z,76.83
2023-03-06T01:40:45.807Z,76.94
2023-03-06T01:43:30.454Z,77.16
2023-03-06T01:46:38.922Z,76.96
2023-03-06T01:49:18.002Z,76.65
2023-03-06T01:51:54.131Z,76.43
2023-03-06T01:54:29.717Z,76.20
2023-03-06T01:57:08.786Z,76.22
2023-03-06T01:59:43.784Z,76.47
2023-03-06T02:02:17.690Z,76.28
2023-03-06T02:04:50.100Z,76.36
2023-03-06T02:07:24.551Z,76.63
2023-03-06T02:09:56.785Z,77.06
2023-03-06T02:12:30.355Z,77.74
2023-03-06T02:15:02.494Z,77.58
2023-03-06T02:17:37.324Z,77.29
2023-03-06T02:20:17.617Z,76.82
2023-03-06T02:22:58.382Z,76.52
2023-03-06T02:25:39.664Z,76.39
2023-03-06T02:28:14.116Z,76.31
2023-03-06T02:30:48.966Z,76.47
2023-03-06T02:33:24.748Z,77.02
2023-03-06T02:35:59.376Z,76.55
2023-03-06T02:38:34.337Z,76.50
2023-03-06T02:41:09.986Z,76.41
2023-03-06T02:43:44.706Z,76.40
2023-03-06T02:46:17.137Z,77.02
2023-03-06T02:48:49.313Z,77.29
2023-03-06T02:51:21.899Z,77.02
2023-03-06T02:53:54.932Z,76.86
2023-03-06T02:56:27.301Z,76.43
2023-03-06T02:58:59.638Z,76.43
2023-03-06T03:01:33.169Z,76.16
2023-03-06T03:04:05.504Z,75.95
2023-03-06T03:06:38.224Z,75.79
2023-03-06T03:09:10.880Z,75.77
2023-03-06T03:11:42.977Z,75.75
2023-03-06T03:14:16.828Z,75.53
2023-03-06T03:16:50.545Z,75.21
2023-03-06T03:19:23.128Z,75.53
2023-03-06T03:21:55.946Z,75.52
2023-03-06T03:24:29.221Z,75.65
2023-03-06T03:27:01.509Z,75.67
2023-03-06T03:29:33.738Z,75.81
2023-03-06T03:32:06.961Z,76.08
2023-03-06T03:34:39.141Z,75.91
2023-03-06T03:37:11.573Z,75.62
2023-03-06T03:39:43.778Z,75.61
2023-03-06T03:42:16.909Z,75.54
2023-03-06T03:44:49.557Z,75.52
2023-03-06T03:47:22.281Z,75.59
2023-03-06T03:49:54.717Z,75.74
2023-03-06T03:52:27.590Z,76.17
2023-03-06T03:55:00.061Z,76.14
2023-03-06T03:57:32.638Z,75.98
2023-03-06T04:00:05.663Z,76.06
2023-03-06T04:02:50.796Z,76.70
2023-03-06T04:05:30.216Z,76.82
2023-03-06T04:08:03.438Z,77.43
2023-03-06T04:10:37.310Z,77.59
2023-03-06T04:13:10.138Z,77.77
2023-03-06T04:15:45.072Z,76.89
2023-03-06T04:18:17.838Z,77.48
2023-03-06T04:20:50.942Z,77.58
2023-03-06T04:23:24.364Z,77.70
2023-03-06T04:25:56.650Z,78.40
2023-03-06T04:28:28.813Z,78.40
2023-03-06T04:31:01.592Z,78.44
2023-03-06T04:33:34.889Z,78.65
2023-03-06T04:36:07.745Z,78.05
2023-03-06T04:38:39.973Z,78.31
2023-03-06T04:41:12.209Z,78.71
2023-03-06T04:43:44.477Z,78.61
2023-03-06T04:46:16.591Z,78.49
2023-03-06T04:48:48.707Z,78.39
2023-03-06T04:51:20.923Z,79.41
2023-03-06T04:53:54.172Z,79.18
2023-03-06T04:56:26.380Z,79.60
2023-03-06T04:58:58.683Z,78.77
2023-03-06T05:01:30.841Z,79.54
2023-03-06T05:04:03.005Z,79.10
2023-03-06T05:06:35.152Z,79.10
2023-03-06T05:09:07.580Z,78.79
2023-03-06T05:11:39.727Z,78.31
2023-03-06T05:14:14.126Z,78.11
2023-03-06T05:16:46.225Z,78.14
2023-03-06T05:19:18.393Z,77.91
2023-03-06T05:21:50.675Z,78.58
2023-03-06T05:24:22.888Z,78.41
2023-03-06T05:26:55.109Z,78.30
2023-03-06T05:29:27.377Z,78.51
2023-03-06T05:32:00.128Z,78.72
2023-03-06T05:34:32.537Z,78.89
2023-03-06T05:37:04.812Z,78.35
2023-03-06T05:39:37.003Z,78.09
2023-03-06T05:42:09.560Z,77.59
2023-03-06T05:44:42.308Z,77.36
2023-03-06T05:47:14.667Z,77.04
2023-03-06T05:49:46.718Z,76.86
2023-03-06T05:52:18.918Z,77.09
2023-03-06T05:54:53.274Z,77.35
2023-03-06T05:57:26.423Z,77.66
2023-03-06T05:59:58.789Z,77.21
2023-03-06T06:02:30.946Z,76.95
2023-03-06T06:05:04.422Z,76.78
2023-03-06T06:07:37.062Z,76.66
2023-03-06T06:10:12.328Z,76.28
2023-03-06T06:12:44.711Z,76.11
2023-03-06T06:15:16.978Z,76.12
2023-03-06T06:17:49.135Z,76.37
2023-03-06T06:20:21.773Z,76.53
2023-03-06T06:22:54.095Z,76.72
2023-03-06T06:25:26.357Z,76.83
2023-03-06T06:27:59.412Z,76.37
2023-03-06T06:30:32.044Z,76.31
2023-03-06T06:33:04.174Z,75.91
2023-03-06T06:35:39.447Z,75.73
2023-03-06T06:38:11.764Z,75.80
2023-03-06T06:40:58.415Z,75.53
2023-03-06T06:43:39.358Z,75.74
2023-03-06T06:46:49.719Z,75.98
2023-03-06T06:49:04.714Z,75.73
2023-03-06T06:51:37.514Z,75.63
2023-03-06T06:54:10.896Z,75.35
2023-03-06T06:56:43.138Z,75.12
2023-03-06T06:59:17.157Z,74.93
2023-03-06T07:01:49.812Z,74.90
2023-03-06T07:04:22.546Z,74.95
2023-03-06T07:06:58.175Z,75.32
2023-03-06T07:09:32.424Z,74.72
2023-03-06T07:12:05.075Z,74.85
2023-03-06T07:14:39.622Z,74.18
2023-03-06T07:17:12.094Z,74.06
2023-03-06T07:19:44.361Z,74.09
2023-03-06T07:22:16.998Z,74.44
2023-03-06T07:24:49.235Z,74.72
2023-03-06T07:27:23.191Z,74.56
2023-03-06T07:29:55.454Z,74.20
2023-03-06T07:32:27.962Z,73.77
2023-03-06T07:35:17.599Z,73.55
2023-03-06T07:37:51.970Z,73.27
2023-03-06T07:40:24.819Z,73.12
2023-03-06T07:43:12.991Z,73.20
2023-03-06T07:46:01.571Z,73.81
2023-03-06T07:48:34.395Z,73.87
2023-03-06T07:51:09.684Z,73.41
2023-03-06T07:53:41.855Z,73.39
2023-03-06T07:56:15.208Z,73.16
2023-03-06T07:58:49.101Z,73.22
2023-03-06T08:01:24.476Z,73.56
2023-03-06T08:03:59.172Z,73.37
2023-03-06T08:06:31.967Z,73.32
2023-03-06T08:09:04.929Z,72.96
2023-03-06T08:11:37.021Z,72.30
2023-03-06T08:14:09.256Z,72.22
2023-03-06T08:16:41.410Z,72.11
2023-03-06T08:19:13.520Z,72.29
2023-03-06T08:21:45.891Z,72.44
2023-03-06T08:24:18.748Z,72.59
2023-03-06T08:26:51.112Z,72.31
2023-03-06T08:29:23.547Z,72.09
2023-03-06T08:31:56.405Z,71.81
2023-03-06T08:34:28.890Z,71.94
2023-03-06T08:37:01.022Z,71.66
2023-03-06T08:39:33.227Z,71.84
2023-03-06T08:42:06.248Z,72.03
2023-03-06T08:44:38.898Z,72.34
2023-03-06T08:47:11.269Z,71.78
2023-03-06T08:49:43.473Z,71.46
2023-03-06T08:52:17.253Z,71.09
2023-03-06T08:54:49.814Z,70.90
2023-03-06T08:57:22.117Z,70.81
2023-03-06T08:59:54.298Z,71.01
2023-03-06T09:02:26.614Z,71.30
2023-03-06T09:04:59.681Z,71.17
2023-03-06T09:07:32.364Z,70.91
2023-03-06T09:10:05.153Z,70.61
2023-03-06T09:12:49.885Z,70.37
2023-03-06T09:15:24.395Z,70.16
2023-03-06T09:17:56.717Z,70.03
2023-03-06T09:20:29.105Z,70.36
2023-03-06T09:23:01.309Z,70.57
2023-03-06T09:25:33.412Z,70.06
2023-03-06T09:28:11.707Z,69.95
2023-03-06T09:30:45.959Z,69.88
2023-03-06T09:33:19.191Z,69.08
2023-03-06T09:35:53.864Z,68.96
2023-03-06T09:38:27.917Z,69.02
2023-03-06T09:41:09.783Z,68.62
2023-03-06T09:43:44.455Z,68.80
2023-03-06T09:46:24.654Z,68.56
2023-03-06T09:49:13.678Z,68.60
2023-03-06T09:51:56.881Z,68.07
2023-03-06T09:54:38.878Z,67.80
2023-03-06T09:57:19.935Z,67.07
2023-03-06T09:59:56.182Z,66.69
2023-03-06T10:02:34.683Z,66.68
2023-03-06T10:05:13.417Z,66.28
2023-03-06T10:07:52.089Z,65.94
2023-03-06T10:10:27.424Z,65.56
2023-03-06T10:13:07.783Z,65.77
2023-03-06T10:15:46.300Z,65.16
2023-03-06T10:18:18.825Z,65.05
2023-03-06T10:20:59.453Z,64.78
2023-03-06T10:23:50.891Z,63.70
2023-03-06T10:26:28.746Z,63.32
2023-03-06T10:29:19.134Z,63.12
2023-03-06T10:32:01.315Z,62.57
2023-03-06T10:34:38.510Z,62.04
2023-03-06T10:37:20.664Z,61.97
2023-03-06T10:39:58.704Z,61.57
2023-03-06T10:42:31.438Z,61.31
2023-03-06T10:45:13.794Z,61.36
2023-03-06T10:47:46.843Z,60.76
2023-03-06T10:50:29.106Z,61.48
2023-03-06T10:53:05.406Z,61.24
2023-03-06T10:55:39.170Z,61.29
2023-03-06T10:58:24.162Z,61.12
2023-03-06T11:01:09.648Z,61.00
2023-03-06T11:03:41.916Z,60.78
2023-03-06T11:06:16.262Z,61.34
2023-03-06T11:08:48.686Z,61.30
2023-03-06T11:11:37.044Z,61.08
2023-03-06T11:14:17.901Z,61.31
2023-03-06T11:16:53.652Z,60.04
2023-03-06T11:19:29.336Z,59.55
2023-03-06T11:22:09.656Z,59.73
2023-03-06T11:24:45.628Z,59.08
2023-03-06T11:27:30.495Z,59.24
2023-03-06T11:30:05.524Z,59.36
2023-03-06T11:32:46.347Z,59.10
2023-03-06T11:35:24.924Z,57.52
2023-03-06T11:38:01.692Z,56.84
2023-03-06T11:40:38.593Z,56.47
2023-03-06T11:43:23.495Z,56.01
2023-03-06T11:46:03.632Z,56.80
2023-03-06T11:48:42.430Z,56.85
2023-03-06T11:51:20.491Z,55.88
2023-03-06T11:53:53.298Z,54.28
2023-03-06T11:56:33.076Z,55.39
2023-03-06T11:59:29.291Z,55.20
2023-03-06T12:02:17.787Z,54.85
2023-03-06T12:05:01.716Z,53.40
2023-03-06T12:07:39.347Z,53.67
2023-03-06T12:10:23.775Z,54.39
2023-03-06T12:13:20.856Z,53.61
2023-03-06T12:16:36.339Z,52.25
2023-03-06T12:19:26.668Z,51.37
2023-03-06T12:22:18.983Z,51.08
2023-03-06T12:25:05.796Z,51.82
2023-03-06T12:27:49.213Z,50.35
2023-03-06T12:30:37.254Z,50.02
2023-03-06T12:33:21.798Z,50.73
2023-03-06T12:36:14.965Z,51.07
2023-03-06T12:39:07.245Z,51.28
2023-03-06T12:41:57.937Z,51.50
2023-03-06T12:44:48.114Z,49.55
2023-03-06T12:47:24.558Z,48.53
2023-03-06T12:50:01.980Z,48.37
2023-03-06T12:52:36.279Z,48.68
2023-03-06T12:55:15.922Z,49.29
2023-03-06T12:57:49.153Z,50.06
2023-03-06T13:00:55.273Z,49.18
2023-03-06T13:03:36.767Z,50.10
2023-03-06T13:06:49.903Z,51.04
2023-03-06T13:09:35.431Z,52.69
2023-03-06T13:12:22.311Z,52.57
2023-03-06T13:15:00.236Z,51.94
2023-03-06T13:17:41.699Z,52.89
2023-03-06T13:20:44.275Z,53.06
2023-03-06T13:23:50.898Z,53.90
2023-03-06T13:27:00.486Z,55.02
2023-03-06T13:30:22.027Z,56.52
2023-03-06T13:32:55.639Z,58.23
2023-03-06T13:35:57.851Z,58.75
2023-03-06T13:38:54.268Z,59.78
2023-03-06T13:41:54.995Z,60.50
2023-03-06T13:44:51.243Z,60.97
2023-03-06T13:50:50.061Z,64.32
2023-03-06T13:53:52.914Z,64.82
2023-03-06T13:56:50.185Z,65.14
2023-03-06T14:00:03.124Z,65.51
2023-03-06T14:03:20.006Z,65.68
2023-03-06T14:05:55.394Z,66.57
2023-03-06T14:08:30.059Z,67.05
2023-03-06T14:11:07.048Z,66.33
2023-03-06T14:13:47.514Z,66.30
2023-03-06T14:16:24.884Z,66.27
2023-03-06T14:18:58.980Z,66.22
2023-03-06T14:21:38.253Z,66.47
2023-03-06T14:24:18.983Z,66.69
2023-03-06T14:26:53.104Z,66.85
2023-03-06T14:29:27.822Z,66.32
2023-03-06T14:32:01.998Z,65.77
2023-03-06T14:34:41.311Z,65.28
2023-03-06T14:37:23.248Z,65.45
2023-03-06T14:39:56.420Z,65.43
2023-03-06T14:42:30.137Z,65.38
2023-03-06T14:45:16.090Z,65.29
2023-03-06T14:47:52.850Z,65.50
2023-03-06T14:50:28.014Z,66.25
2023-03-06T14:53:04.354Z,66.73
2023-03-06T14:55:36.767Z,66.85
2023-03-06T14:58:16.954Z,66.68
2023-03-06T15:00:55.328Z,66.63
2023-03-06T15:03:35.032Z,67.05
2023-03-06T15:06:08.691Z,66.79
2023-03-06T15:08:49.779Z,66.74
2023-03-06T15:11:23.017Z,66.90
2023-03-06T15:14:05.568Z,66.26
2023-03-06T15:16:36.390Z,66.39
2023-03-06T15:19:18.486Z,66.04
2023-03-06T15:21:52.896Z,65.85
2023-03-06T15:24:36.216Z,66.06
2023-03-06T15:27:18.613Z,66.22
2023-03-06T15:29:49.414Z,65.79
2023-03-06T15:32:35.194Z,65.86
2023-03-06T15:35:29.865Z,66.49
2023-03-06T15:38:03.129Z,66.24
2023-03-06T15:40:35.615Z,66.07
2023-03-06T15:43:13.246Z,66.06
2023-03-06T15:45:45.415Z,65.94
2023-03-06T15:48:20.043Z,65.73
2023-03-06T15:50:52.228Z,66.00
2023-03-06T15:53:24.559Z,66.05
2023-03-06T15:55:57.829Z,66.01
2023-03-06T15:58:36.763Z,65.86
2023-03-06T16:01:09.538Z,66.07
2023-03-06T16:03:41.675Z,66.34
2023-03-06T16:06:19.585Z,66.35
2023-03-06T16:08:52.106Z,66.30
2023-03-06T16:11:35.394Z,65.87
2023-03-06T16:14:18.918Z,65.73
2023-03-06T16:16:51.569Z,65.61
2023-03-06T16:19:27.377Z,65.36
2023-03-06T16:22:00.249Z,65.27
2023-03-06T16:24:32.494Z,65.72
2023-03-06T16:27:05.074Z,65.56
2023-03-06T16:29:37.387Z,65.94
2023-03-06T16:32:12.355Z,66.07
2023-03-06T16:34:44.489Z,65.97
2023-03-06T16:37:17.237Z,65.80
2023-03-06T16:39:49.519Z,65.81
2023-03-06T16:42:23.417Z,65.66
2023-03-06T16:44:55.633Z,65.53
2023-03-06T16:47:27.801Z,65.77
2023-03-06T16:50:02.198Z,65.54
2023-03-06T16:52:34.547Z,65.64
2023-03-06T16:55:07.121Z,65.70
2023-03-06T16:57:39.384Z,65.60
2023-03-06T17:00:13.758Z,65.44
2023-03-06T17:02:49.177Z,65.56
2023-03-06T17:05:22.066Z,65.98
2023-03-06T17:07:54.616Z,66.35
2023-03-06T17:10:27.404Z,66.14
2023-03-06T17:13:00.598Z,66.15
2023-03-06T17:15:33.243Z,66.22
2023-03-06T17:18:05.865Z,66.20
2023-03-06T17:20:38.687Z,66.32
2023-03-06T17:23:10.826Z,66.39
2023-03-06T17:25:43.076Z,66.37
2023-03-06T17:28:15.684Z,66.21
2023-03-06T17:30:47.880Z,66.41
2023-03-06T17:33:20.032Z,66.10
2023-03-06T17:35:52.134Z,66.33
2023-03-06T17:38:24.337Z,67.05
2023-03-06T17:40:56.595Z,66.72
2023-03-06T17:43:28.806Z,66.75
2023-03-06T17:46:05.498Z,66.48
2023-03-06T17:48:37.974Z,66.29
2023-03-06T17:51:10.824Z,66.84
2023-03-06T17:53:43.073Z,66.99
2023-03-06T17:56:16.782Z,66.78
2023-03-06T17:58:49.092Z,66.66
2023-03-06T18:01:23.355Z,67.03
2023-03-06T18:03:56.467Z,67.56
2023-03-06T18:06:30.464Z,67.06
2023-03-06T18:09:03.878Z,66.74
2023-03-06T18:11:37.344Z,66.36
2023-03-06T18:14:10.761Z,66.55
2023-03-06T18:16:43.154Z,66.54
2023-03-06T18:19:16.654Z,66.43
2023-03-06T18:21:49.192Z,66.65
2023-03-06T18:24:21.631Z,66.63
2023-03-06T18:26:53.994Z,66.78
2023-03-06T18:29:26.211Z,67.08
2023-03-06T18:31:59.470Z,67.09
2023-03-06T18:34:32.081Z,67.48
2023-03-06T18:37:04.338Z,67.23
2023-03-06T18:39:36.648Z,67.39
2023-03-06T18:42:12.415Z,67.52
2023-03-06T18:44:47.939Z,68.02
2023-03-06T18:47:20.473Z,69.15
2023-03-06T18:49:53.205Z,68.71
2023-03-06T18:52:25.842Z,68.57
2023-03-06T18:54:58.513Z,68.48
2023-03-06T18:57:31.382Z,69.01
2023-03-06T19:00:03.720Z,69.45
2023-03-06T19:02:36.105Z,68.92
2023-03-06T19:05:10.987Z,68.93
2023-03-06T19:07:43.628Z,68.79
2023-03-06T19:10:16.067Z,68.73
2023-03-06T19:12:48.473Z,68.79
2023-03-06T19:15:20.941Z,68.71
2023-03-06T19:17:53.514Z,68.64
2023-03-06T19:20:27.014Z,69.00
2023-03-06T19:22:59.241Z,70.14
2023-03-06T19:25:31.621Z,70.09
2023-03-06T19:28:04.162Z,70.65
2023-03-06T19:30:38.396Z,70.70
2023-03-06T19:33:10.684Z,69.89
2023-03-06T19:35:43.048Z,69.82
2023-03-06T19:38:15.335Z,69.66
2023-03-06T19:40:52.801Z,69.70
2023-03-06T19:43:25.193Z,69.64
2023-03-06T19:45:57.926Z,69.99
2023-03-06T19:48:30.175Z,69.86
2023-03-06T19:51:07.782Z,70.04
2023-03-06T19:53:40.708Z,70.40
2023-03-06T19:56:16.123Z,71.07
2023-03-06T19:58:48.452Z,71.31
2023-03-06T20:01:22.534Z,71.17
2023-03-06T20:03:59.089Z,71.68
2023-03-06T20:06:36.782Z,71.44
2023-03-06T20:09:10.442Z,71.04
2023-03-06T20:11:42.654Z,71.00
2023-03-06T20:14:15.561Z,70.54
2023-03-06T20:16:47.728Z,71.02
2023-03-06T20:19:22.024Z,70.85
2023-03-06T20:21:54.345Z,71.58
2023-03-06T20:24:26.677Z,71.32
2023-03-06T20:26:59.602Z,71.79
2023-03-06T20:29:31.710Z,71.20
2023-03-06T20:32:03.886Z,70.98
2023-03-06T20:34:39.097Z,71.05
2023-03-06T20:37:12.045Z,70.87
2023-03-06T20:39:44.368Z,70.82
2023-03-06T20:42:17.847Z,70.68
2023-03-06T20:44:49.918Z,71.32
2023-03-06T20:47:22.168Z,71.73
2023-03-06T20:49:54.368Z,71.33
2023-03-06T20:52:26.552Z,71.26
2023-03-06T20:54:58.744Z,71.41
2023-03-06T20:57:31.010Z,71.07
2023-03-06T21:00:04.059Z,71.35
2023-03-06T21:02:36.533Z,71.36
2023-03-06T21:05:10.024Z,71.35
2023-03-06T21:07:42.217Z,71.14
2023-03-06T21:10:15.404Z,71.52
2023-03-06T21:12:47.495Z,71.78
2023-03-06T21:15:20.322Z,72.38
2023-03-06T21:17:52.492Z,72.86
2023-03-06T21:20:27.456Z,72.79
2023-03-06T21:23:03.751Z,73.10
2023-03-06T21:25:34.598Z,73.01
2023-03-06T21:28:06.848Z,73.64
2023-03-06T21:30:39.074Z,72.93
2023-03-06T21:33:11.762Z,73.09
2023-03-06T21:35:44.790Z,73.27
2023-03-06T21:38:17.585Z,73.72
2023-03-06T21:40:49.893Z,73.99
2023-03-06T21:43:21.999Z,74.13
2023-03-06T21:45:57.647Z,74.11
2023-03-06T21:48:29.936Z,73.71
2023-03-06T21:51:11.549Z,73.25
2023-03-06T21:53:47.050Z,73.54
2023-03-06T21:56:23.356Z,73.77
2023-03-06T21:58:54.287Z,74.13
2023-03-06T22:01:28.529Z,73.70
2023-03-06T22:04:01.232Z,73.80
2023-03-06T22:06:34.068Z,73.89
2023-03-06T22:09:06.393Z,73.34
2023-03-06T22:11:38.815Z,73.77
2023-03-06T22:14:10.924Z,73.62
2023-03-06T22:16:43.067Z,73.80
2023-03-06T22:19:15.851Z,74.05
2023-03-06T22:21:48.024Z,74.33
2023-03-06T22:24:20.183Z,74.59
2023-03-06T22:26:52.338Z,74.12
2023-03-06T22:29:25.039Z,73.91
2023-03-06T22:31:57.177Z,73.44
2023-03-06T22:34:29.549Z,73.41
2023-03-06T22:37:02.111Z,73.23
2023-03-06T22:39:34.554Z,72.87
2023-03-06T22:42:07.494Z,73.14
2023-03-06T22:44:39.668Z,73.01
2023-03-06T22:47:11.932Z,73.25
2023-03-06T22:49:44.196Z,73.15
2023-03-06T22:52:19.657Z,73.71
2023-03-06T22:54:51.894Z,73.52
2023-03-06T22:57:24.095Z,73.42
2023-03-06T22:59:56.465Z,73.20
2023-03-06T23:02:33.055Z,72.80
2023-03-06T23:05:05.491Z,73.05
2023-03-06T23:07:37.632Z,72.93
2023-03-06T23:10:11.485Z,72.33
2023-03-06T23:13:03.399Z,72.52
2023-03-06T23:15:54.639Z,72.82
2023-03-06T23:18:45.477Z,72.86
2023-03-06T23:21:36.406Z,72.78
2023-03-06T23:24:28.808Z,72.77
2023-03-06T23:27:01.030Z,72.72
2023-03-06T23:29:33.207Z,72.34
2023-03-06T23:32:05.710Z,73.30
2023-03-06T23:34:38.006Z,73.30
2023-03-06T23:37:10.166Z,73.52
2023-03-06T23:39:42.603Z,73.97
2023-03-06T23:42:14.971Z,73.77
2023-03-06T23:44:47.349Z,73.17
2023-03-06T23:47:20.157Z,73.10
2023-03-06T23:49:52.268Z,73.08
2023-03-06T23:52:24.508Z,72.74
2023-03-06T23:54:56.780Z,72.48
2023-03-06T23:57:30.314Z,72.70
